sensor_id;sensor_type;location;lat;lon;timestamp;P1;durP1;ratioP1;P2;durP2;ratioP2
65558;SDS011;52203;51.998;5.140;2023-05-19T00:02:13;10.57;;;3.92;;
65558;SDS011;52203;51.998;5.140;2023-05-19T00:04:40;8.38;;;3.95;;
65558;SDS011;52203;51.998;5.140;2023-05-19T00:07:05;8.45;;;3.70;;
65558;SDS011;52203;51.998;5.140;2023-05-19T00:09:35;9.77;;;3.95;;
65558;SDS011;52203;51.998;5.140;2023-05-19T00:12:01;10.32;;;3.80;;
65558;SDS011;52203;51.998;5.140;2023-05-19T00:14:27;8.27;;;3.97;;
65558;SDS011;52203;51.998;5.140;2023-05-19T00:16:53;7.78;;;3.40;;
65558;SDS011;52203;51.998;5.140;2023-05-19T00:19:20;11.02;;;4.10;;
65558;SDS011;52203;51.998;5.140;2023-05-19T00:21:46;6.85;;;3.95;;
65558;SDS011;52203;51.998;5.140;2023-05-19T00:24:11;7.38;;;4.03;;
65558;SDS011;52203;51.998;5.140;2023-05-19T00:26:37;10.27;;;4.20;;
65558;SDS011;52203;51.998;5.140;2023-05-19T00:29:02;10.82;;;3.88;;
65558;SDS011;52203;51.998;5.140;2023-05-19T00:31:28;6.85;;;4.20;;
65558;SDS011;52203;51.998;5.140;2023-05-19T00:33:53;10.05;;;4.32;;
65558;SDS011;52203;51.998;5.140;2023-05-19T00:36:19;10.70;;;4.47;;
65558;SDS011;52203;51.998;5.140;2023-05-19T00:38:45;10.75;;;4.47;;
65558;SDS011;52203;51.998;5.140;2023-05-19T00:41:10;9.40;;;4.00;;
65558;SDS011;52203;51.998;5.140;2023-05-19T00:43:36;6.70;;;3.63;;
65558;SDS011;52203;51.998;5.140;2023-05-19T00:46:01;9.15;;;4.30;;
65558;SDS011;52203;51.998;5.140;2023-05-19T00:48:27;10.90;;;3.80;;
65558;SDS011;52203;51.998;5.140;2023-05-19T00:50:54;7.57;;;3.45;;
65558;SDS011;52203;51.998;5.140;2023-05-19T00:53:25;10.35;;;4.35;;
65558;SDS011;52203;51.998;5.140;2023-05-19T00:55:51;8.07;;;4.43;;
65558;SDS011;52203;51.998;5.140;2023-05-19T00:58:17;10.05;;;3.63;;
65558;SDS011;52203;51.998;5.140;2023-05-19T01:00:43;11.20;;;3.78;;
65558;SDS011;52203;51.998;5.140;2023-05-19T01:03:09;11.30;;;4.38;;
65558;SDS011;52203;51.998;5.140;2023-05-19T01:05:39;9.32;;;3.90;;
65558;SDS011;52203;51.998;5.140;2023-05-19T01:08:17;8.52;;;3.60;;
65558;SDS011;52203;51.998;5.140;2023-05-19T01:10:43;7.20;;;4.30;;
65558;SDS011;52203;51.998;5.140;2023-05-19T01:13:09;10.63;;;4.03;;
65558;SDS011;52203;51.998;5.140;2023-05-19T01:15:38;8.02;;;3.45;;
65558;SDS011;52203;51.998;5.140;2023-05-19T01:18:34;10.45;;;4.25;;
65558;SDS011;52203;51.998;5.140;2023-05-19T01:21:24;9.15;;;4.28;;
65558;SDS011;52203;51.998;5.140;2023-05-19T01:31:16;6.80;;;3.60;;
65558;SDS011;52203;51.998;5.140;2023-05-19T01:36:56;8.45;;;3.88;;
65558;SDS011;52203;51.998;5.140;2023-05-19T01:39:37;10.35;;;3.70;;
65558;SDS011;52203;51.998;5.140;2023-05-19T01:42:04;10.75;;;4.07;;
65558;SDS011;52203;51.998;5.140;2023-05-19T01:44:36;10.73;;;5.03;;
65558;SDS011;52203;51.998;5.140;2023-05-19T01:50:37;9.88;;;4.53;;
65558;SDS011;52203;51.998;5.140;2023-05-19T01:53:46;6.70;;;3.58;;
65558;SDS011;52203;51.998;5.140;2023-05-19T01:56:23;8.43;;;4.45;;
65558;SDS011;52203;51.998;5.140;2023-05-19T01:59:22;14.60;;;4.78;;
65558;SDS011;52203;51.998;5.140;2023-05-19T02:05:22;9.00;;;4.38;;
65558;SDS011;52203;51.998;5.140;2023-05-19T02:08:40;10.63;;;4.47;;
65558;SDS011;52203;51.998;5.140;2023-05-19T02:11:33;15.15;;;4.32;;
65558;SDS011;52203;51.998;5.140;2023-05-19T02:17:48;11.00;;;4.15;;
65558;SDS011;52203;51.998;5.140;2023-05-19T02:20:47;12.43;;;5.07;;
65558;SDS011;52203;51.998;5.140;2023-05-19T02:24:20;9.65;;;4.75;;
65558;SDS011;52203;51.998;5.140;2023-05-19T02:26:29;9.98;;;4.20;;
65558;SDS011;52203;51.998;5.140;2023-05-19T02:29:06;8.63;;;4.28;;
65558;SDS011;52203;51.998;5.140;2023-05-19T02:35:25;12.40;;;4.57;;
65558;SDS011;52203;51.998;5.140;2023-05-19T02:37:53;12.10;;;4.70;;
65558;SDS011;52203;51.998;5.140;2023-05-19T02:40:34;12.82;;;5.10;;
65558;SDS011;52203;51.998;5.140;2023-05-19T02:45:57;11.50;;;3.97;;
65558;SDS011;52203;51.998;5.140;2023-05-19T02:48:23;8.65;;;4.28;;
65558;SDS011;52203;51.998;5.140;2023-05-19T02:51:00;12.18;;;4.75;;
65558;SDS011;52203;51.998;5.140;2023-05-19T02:54:05;12.45;;;4.63;;
65558;SDS011;52203;51.998;5.140;2023-05-19T02:56:41;10.90;;;4.25;;
65558;SDS011;52203;51.998;5.140;2023-05-19T03:01:47;11.35;;;4.40;;
65558;SDS011;52203;51.998;5.140;2023-05-19T03:04:13;9.70;;;4.47;;
65558;SDS011;52203;51.998;5.140;2023-05-19T03:06:57;10.55;;;4.60;;
65558;SDS011;52203;51.998;5.140;2023-05-19T03:09:57;13.25;;;4.75;;
65558;SDS011;52203;51.998;5.140;2023-05-19T03:12:49;10.65;;;4.50;;
65558;SDS011;52203;51.998;5.140;2023-05-19T03:17:47;11.30;;;4.38;;
65558;SDS011;52203;51.998;5.140;2023-05-19T03:20:13;10.13;;;4.55;;
65558;SDS011;52203;51.998;5.140;2023-05-19T03:22:49;13.00;;;4.93;;
65558;SDS011;52203;51.998;5.140;2023-05-19T03:25:26;11.60;;;4.75;;
65558;SDS011;52203;51.998;5.140;2023-05-19T03:28:12;9.63;;;4.25;;
65558;SDS011;52203;51.998;5.140;2023-05-19T03:31:00;8.80;;;4.53;;
65558;SDS011;52203;51.998;5.140;2023-05-19T03:33:26;10.23;;;4.60;;
65558;SDS011;52203;51.998;5.140;2023-05-19T03:35:53;13.68;;;4.75;;
65558;SDS011;52203;51.998;5.140;2023-05-19T03:38:44;11.75;;;4.85;;
65558;SDS011;52203;51.998;5.140;2023-05-19T03:48:10;10.90;;;4.32;;
65558;SDS011;52203;51.998;5.140;2023-05-19T03:51:01;10.38;;;4.43;;
65558;SDS011;52203;51.998;5.140;2023-05-19T03:53:40;10.43;;;4.75;;
65558;SDS011;52203;51.998;5.140;2023-05-19T03:56:09;10.93;;;4.75;;
65558;SDS011;52203;51.998;5.140;2023-05-19T04:01:37;9.25;;;4.63;;
65558;SDS011;52203;51.998;5.140;2023-05-19T04:04:26;9.48;;;4.32;;
65558;SDS011;52203;51.998;5.140;2023-05-19T04:06:52;10.73;;;4.70;;
65558;SDS011;52203;51.998;5.140;2023-05-19T04:09:18;10.10;;;4.43;;
65558;SDS011;52203;51.998;5.140;2023-05-19T04:11:48;13.75;;;5.15;;
65558;SDS011;52203;51.998;5.140;2023-05-19T04:14:19;9.73;;;4.43;;
65558;SDS011;52203;51.998;5.140;2023-05-19T04:17:10;9.63;;;4.53;;
65558;SDS011;52203;51.998;5.140;2023-05-19T04:42:04;12.63;;;5.07;;
65558;SDS011;52203;51.998;5.140;2023-05-19T04:44:38;10.70;;;4.72;;
65558;SDS011;52203;51.998;5.140;2023-05-19T04:47:07;11.88;;;5.00;;
65558;SDS011;52203;51.998;5.140;2023-05-19T04:49:36;11.43;;;5.20;;
65558;SDS011;52203;51.998;5.140;2023-05-19T04:52:21;12.15;;;5.75;;
65558;SDS011;52203;51.998;5.140;2023-05-19T04:54:47;13.82;;;5.72;;
65558;SDS011;52203;51.998;5.140;2023-05-19T04:57:13;11.15;;;5.40;;
65558;SDS011;52203;51.998;5.140;2023-05-19T04:59:38;11.57;;;5.15;;
65558;SDS011;52203;51.998;5.140;2023-05-19T05:02:04;11.77;;;4.93;;
65558;SDS011;52203;51.998;5.140;2023-05-19T05:04:29;12.15;;;5.13;;
65558;SDS011;52203;51.998;5.140;2023-05-19T05:06:55;10.40;;;5.45;;
65558;SDS011;52203;51.998;5.140;2023-05-19T05:09:20;10.00;;;5.40;;
65558;SDS011;52203;51.998;5.140;2023-05-19T05:11:46;10.32;;;5.05;;
65558;SDS011;52203;51.998;5.140;2023-05-19T05:14:12;9.50;;;4.55;;
65558;SDS011;52203;51.998;5.140;2023-05-19T05:16:37;12.43;;;5.78;;
65558;SDS011;52203;51.998;5.140;2023-05-19T05:19:03;13.05;;;5.28;;
65558;SDS011;52203;51.998;5.140;2023-05-19T05:21:29;9.48;;;4.70;;
65558;SDS011;52203;51.998;5.140;2023-05-19T05:23:56;11.80;;;4.80;;
65558;SDS011;52203;51.998;5.140;2023-05-19T05:26:21;10.00;;;4.85;;
65558;SDS011;52203;51.998;5.140;2023-05-19T05:28:48;12.27;;;5.15;;
65558;SDS011;52203;51.998;5.140;2023-05-19T05:31:13;11.50;;;4.88;;
65558;SDS011;52203;51.998;5.140;2023-05-19T05:33:40;10.32;;;4.90;;
65558;SDS011;52203;51.998;5.140;2023-05-19T05:36:07;9.80;;;4.57;;
65558;SDS011;52203;51.998;5.140;2023-05-19T05:38:33;8.15;;;4.70;;
65558;SDS011;52203;51.998;5.140;2023-05-19T05:40:59;9.23;;;4.80;;
65558;SDS011;52203;51.998;5.140;2023-05-19T05:43:26;9.75;;;4.88;;
65558;SDS011;52203;51.998;5.140;2023-05-19T05:45:51;11.85;;;4.88;;
65558;SDS011;52203;51.998;5.140;2023-05-19T05:48:17;8.38;;;4.78;;
65558;SDS011;52203;51.998;5.140;2023-05-19T05:50:43;9.13;;;5.18;;
65558;SDS011;52203;51.998;5.140;2023-05-19T05:53:09;12.27;;;5.32;;
65558;SDS011;52203;51.998;5.140;2023-05-19T05:55:41;9.43;;;4.32;;
65558;SDS011;52203;51.998;5.140;2023-05-19T05:58:07;10.68;;;4.88;;
65558;SDS011;52203;51.998;5.140;2023-05-19T06:00:35;11.93;;;4.43;;
65558;SDS011;52203;51.998;5.140;2023-05-19T06:03:01;10.45;;;4.65;;
65558;SDS011;52203;51.998;5.140;2023-05-19T06:05:28;9.07;;;4.55;;
65558;SDS011;52203;51.998;5.140;2023-05-19T06:07:54;9.35;;;4.80;;
65558;SDS011;52203;51.998;5.140;2023-05-19T06:10:19;11.60;;;4.78;;
65558;SDS011;52203;51.998;5.140;2023-05-19T06:12:46;6.45;;;4.25;;
65558;SDS011;52203;51.998;5.140;2023-05-19T06:15:12;11.57;;;4.93;;
65558;SDS011;52203;51.998;5.140;2023-05-19T06:17:37;9.93;;;5.85;;
65558;SDS011;52203;51.998;5.140;2023-05-19T06:20:03;8.65;;;4.47;;
65558;SDS011;52203;51.998;5.140;2023-05-19T06:22:30;9.35;;;4.57;;
65558;SDS011;52203;51.998;5.140;2023-05-19T06:24:55;7.68;;;4.95;;
65558;SDS011;52203;51.998;5.140;2023-05-19T06:27:21;9.43;;;4.53;;
65558;SDS011;52203;51.998;5.140;2023-05-19T06:29:46;10.38;;;4.85;;
65558;SDS011;52203;51.998;5.140;2023-05-19T06:32:12;8.90;;;4.57;;
65558;SDS011;52203;51.998;5.140;2023-05-19T06:34:37;9.18;;;4.35;;
65558;SDS011;52203;51.998;5.140;2023-05-19T06:37:04;9.80;;;4.60;;
65558;SDS011;52203;51.998;5.140;2023-05-19T06:39:30;9.30;;;4.65;;
65558;SDS011;52203;51.998;5.140;2023-05-19T06:41:55;8.10;;;4.78;;
65558;SDS011;52203;51.998;5.140;2023-05-19T06:44:21;7.80;;;4.35;;
65558;SDS011;52203;51.998;5.140;2023-05-19T06:46:46;8.98;;;4.30;;
65558;SDS011;52203;51.998;5.140;2023-05-19T06:49:12;10.50;;;4.65;;
65558;SDS011;52203;51.998;5.140;2023-05-19T06:51:37;10.10;;;4.43;;
65558;SDS011;52203;51.998;5.140;2023-05-19T06:54:03;11.68;;;4.55;;
65558;SDS011;52203;51.998;5.140;2023-05-19T06:56:28;11.65;;;4.40;;
65558;SDS011;52203;51.998;5.140;2023-05-19T06:58:54;10.98;;;4.43;;
65558;SDS011;52203;51.998;5.140;2023-05-19T07:01:19;10.88;;;5.00;;
65558;SDS011;52203;51.998;5.140;2023-05-19T07:03:45;8.85;;;4.35;;
65558;SDS011;52203;51.998;5.140;2023-05-19T07:06:11;5.85;;;3.83;;
65558;SDS011;52203;51.998;5.140;2023-05-19T07:08:40;6.72;;;4.00;;
65558;SDS011;52203;51.998;5.140;2023-05-19T07:11:05;11.57;;;4.03;;
65558;SDS011;52203;51.998;5.140;2023-05-19T07:13:31;7.57;;;3.70;;
65558;SDS011;52203;51.998;5.140;2023-05-19T07:15:57;6.63;;;3.90;;
65558;SDS011;52203;51.998;5.140;2023-05-19T07:18:22;10.93;;;4.90;;
65558;SDS011;52203;51.998;5.140;2023-05-19T07:20:48;8.35;;;3.63;;
65558;SDS011;52203;51.998;5.140;2023-05-19T07:23:13;8.52;;;3.90;;
65558;SDS011;52203;51.998;5.140;2023-05-19T07:25:39;7.07;;;3.88;;
65558;SDS011;52203;51.998;5.140;2023-05-19T07:28:04;8.80;;;3.88;;
65558;SDS011;52203;51.998;5.140;2023-05-19T07:30:30;10.02;;;3.75;;
65558;SDS011;52203;51.998;5.140;2023-05-19T07:32:55;8.32;;;3.78;;
65558;SDS011;52203;51.998;5.140;2023-05-19T07:35:21;5.93;;;3.28;;
65558;SDS011;52203;51.998;5.140;2023-05-19T07:37:47;9.27;;;3.63;;
65558;SDS011;52203;51.998;5.140;2023-05-19T07:40:13;8.73;;;3.50;;
65558;SDS011;52203;51.998;5.140;2023-05-19T07:42:39;7.82;;;3.63;;
65558;SDS011;52203;51.998;5.140;2023-05-19T07:45:05;8.27;;;3.72;;
65558;SDS011;52203;51.998;5.140;2023-05-19T07:47:31;12.18;;;4.13;;
65558;SDS011;52203;51.998;5.140;2023-05-19T07:49:57;6.15;;;3.10;;
65558;SDS011;52203;51.998;5.140;2023-05-19T07:52:22;7.95;;;3.28;;
65558;SDS011;52203;51.998;5.140;2023-05-19T07:54:48;8.05;;;3.13;;
65558;SDS011;52203;51.998;5.140;2023-05-19T07:57:13;8.15;;;3.50;;
65558;SDS011;52203;51.998;5.140;2023-05-19T07:59:39;9.27;;;2.90;;
65558;SDS011;52203;51.998;5.140;2023-05-19T08:02:04;9.55;;;3.40;;
65558;SDS011;52203;51.998;5.140;2023-05-19T08:04:30;6.05;;;2.85;;
65558;SDS011;52203;51.998;5.140;2023-05-19T08:06:55;7.20;;;3.20;;
65558;SDS011;52203;51.998;5.140;2023-05-19T08:09:21;10.45;;;3.17;;
65558;SDS011;52203;51.998;5.140;2023-05-19T08:11:47;6.28;;;2.67;;
65558;SDS011;52203;51.998;5.140;2023-05-19T08:14:13;8.85;;;3.45;;
65558;SDS011;52203;51.998;5.140;2023-05-19T08:16:39;9.63;;;3.70;;
65558;SDS011;52203;51.998;5.140;2023-05-19T08:19:07;8.73;;;3.15;;
65558;SDS011;52203;51.998;5.140;2023-05-19T08:21:33;7.78;;;3.20;;
65558;SDS011;52203;51.998;5.140;2023-05-19T08:23:59;6.10;;;3.15;;
65558;SDS011;52203;51.998;5.140;2023-05-19T08:26:26;6.55;;;3.30;;
65558;SDS011;52203;51.998;5.140;2023-05-19T08:28:52;11.80;;;3.47;;
65558;SDS011;52203;51.998;5.140;2023-05-19T08:31:17;7.25;;;3.50;;
65558;SDS011;52203;51.998;5.140;2023-05-19T08:33:43;6.80;;;2.97;;
65558;SDS011;52203;51.998;5.140;2023-05-19T08:36:10;8.57;;;3.53;;
65558;SDS011;52203;51.998;5.140;2023-05-19T08:38:35;7.80;;;3.92;;
65558;SDS011;52203;51.998;5.140;2023-05-19T08:41:01;7.43;;;3.63;;
65558;SDS011;52203;51.998;5.140;2023-05-19T08:43:27;5.18;;;3.10;;
65558;SDS011;52203;51.998;5.140;2023-05-19T08:45:54;7.22;;;3.35;;
65558;SDS011;52203;51.998;5.140;2023-05-19T08:48:20;6.78;;;3.13;;
65558;SDS011;52203;51.998;5.140;2023-05-19T08:53:50;5.80;;;3.10;;
65558;SDS011;52203;51.998;5.140;2023-05-19T08:56:22;9.60;;;3.60;;
65558;SDS011;52203;51.998;5.140;2023-05-19T08:58:49;10.98;;;4.10;;
65558;SDS011;52203;51.998;5.140;2023-05-19T09:01:15;8.10;;;3.55;;
65558;SDS011;52203;51.998;5.140;2023-05-19T09:03:41;7.88;;;3.13;;
65558;SDS011;52203;51.998;5.140;2023-05-19T09:06:08;9.75;;;3.50;;
65558;SDS011;52203;51.998;5.140;2023-05-19T09:08:38;5.70;;;3.33;;
65558;SDS011;52203;51.998;5.140;2023-05-19T09:11:04;8.20;;;3.20;;
65558;SDS011;52203;51.998;5.140;2023-05-19T09:13:29;8.57;;;3.17;;
65558;SDS011;52203;51.998;5.140;2023-05-19T09:15:56;7.22;;;3.08;;
65558;SDS011;52203;51.998;5.140;2023-05-19T09:18:23;7.28;;;3.33;;
65558;SDS011;52203;51.998;5.140;2023-05-19T09:20:50;6.72;;;3.45;;
65558;SDS011;52203;51.998;5.140;2023-05-19T09:23:23;7.47;;;3.22;;
65558;SDS011;52203;51.998;5.140;2023-05-19T09:25:53;8.25;;;2.83;;
65558;SDS011;52203;51.998;5.140;2023-05-19T09:28:23;7.32;;;2.63;;
65558;SDS011;52203;51.998;5.140;2023-05-19T09:30:58;7.15;;;3.00;;
65558;SDS011;52203;51.998;5.140;2023-05-19T09:33:25;7.95;;;2.65;;
65558;SDS011;52203;51.998;5.140;2023-05-19T09:35:52;6.68;;;3.10;;
65558;SDS011;52203;51.998;5.140;2023-05-19T09:38:19;8.77;;;2.97;;
65558;SDS011;52203;51.998;5.140;2023-05-19T09:40:46;8.88;;;2.83;;
65558;SDS011;52203;51.998;5.140;2023-05-19T09:43:13;6.35;;;2.90;;
65558;SDS011;52203;51.998;5.140;2023-05-19T09:45:39;5.43;;;2.53;;
65558;SDS011;52203;51.998;5.140;2023-05-19T09:48:05;5.47;;;2.08;;
65558;SDS011;52203;51.998;5.140;2023-05-19T09:50:31;9.68;;;2.47;;
65558;SDS011;52203;51.998;5.140;2023-05-19T09:52:57;5.03;;;2.20;;
65558;SDS011;52203;51.998;5.140;2023-05-19T09:55:24;8.48;;;2.50;;
65558;SDS011;52203;51.998;5.140;2023-05-19T09:57:53;4.60;;;2.33;;
65558;SDS011;52203;51.998;5.140;2023-05-19T10:00:20;6.45;;;2.08;;
65558;SDS011;52203;51.998;5.140;2023-05-19T10:02:50;4.05;;;2.22;;
65558;SDS011;52203;51.998;5.140;2023-05-19T10:05:17;5.68;;;2.53;;
65558;SDS011;52203;51.998;5.140;2023-05-19T10:07:49;6.85;;;2.70;;
65558;SDS011;52203;51.998;5.140;2023-05-19T10:10:17;6.43;;;2.15;;
65558;SDS011;52203;51.998;5.140;2023-05-19T10:12:45;6.32;;;2.13;;
65558;SDS011;52203;51.998;5.140;2023-05-19T10:15:15;6.20;;;2.05;;
65558;SDS011;52203;51.998;5.140;2023-05-19T10:17:42;6.15;;;2.50;;
65558;SDS011;52203;51.998;5.140;2023-05-19T10:20:09;5.47;;;2.17;;
65558;SDS011;52203;51.998;5.140;2023-05-19T10:22:39;6.88;;;2.35;;
65558;SDS011;52203;51.998;5.140;2023-05-19T10:25:06;4.55;;;1.95;;
65558;SDS011;52203;51.998;5.140;2023-05-19T10:27:34;7.00;;;2.22;;
65558;SDS011;52203;51.998;5.140;2023-05-19T10:30:05;5.03;;;2.15;;
65558;SDS011;52203;51.998;5.140;2023-05-19T10:32:33;6.13;;;1.92;;
65558;SDS011;52203;51.998;5.140;2023-05-19T10:40:53;4.65;;;2.60;;
65558;SDS011;52203;51.998;5.140;2023-05-19T10:43:46;4.55;;;2.17;;
65558;SDS011;52203;51.998;5.140;2023-05-19T10:46:22;6.90;;;2.60;;
65558;SDS011;52203;51.998;5.140;2023-05-19T10:48:49;6.72;;;3.13;;
65558;SDS011;52203;51.998;5.140;2023-05-19T10:51:15;5.07;;;2.35;;
65558;SDS011;52203;51.998;5.140;2023-05-19T10:53:41;5.07;;;2.40;;
65558;SDS011;52203;51.998;5.140;2023-05-19T10:56:10;5.88;;;2.05;;
65558;SDS011;52203;51.998;5.140;2023-05-19T10:58:53;6.73;;;2.33;;
65558;SDS011;52203;51.998;5.140;2023-05-19T11:01:18;8.85;;;2.83;;
65558;SDS011;52203;51.998;5.140;2023-05-19T11:03:55;6.22;;;2.50;;
65558;SDS011;52203;51.998;5.140;2023-05-19T11:09:35;5.47;;;2.40;;
65558;SDS011;52203;51.998;5.140;2023-05-19T11:11:49;8.38;;;2.75;;
65558;SDS011;52203;51.998;5.140;2023-05-19T11:16:51;7.33;;;2.97;;
65558;SDS011;52203;51.998;5.140;2023-05-19T11:19:27;4.97;;;2.42;;
65558;SDS011;52203;51.998;5.140;2023-05-19T11:21:57;5.97;;;2.75;;
65558;SDS011;52203;51.998;5.140;2023-05-19T11:29:42;5.22;;;2.80;;
65558;SDS011;52203;51.998;5.140;2023-05-19T11:32:08;7.38;;;2.88;;
65558;SDS011;52203;51.998;5.140;2023-05-19T11:34:35;7.22;;;2.80;;
65558;SDS011;52203;51.998;5.140;2023-05-19T11:37:02;4.40;;;2.22;;
65558;SDS011;52203;51.998;5.140;2023-05-19T11:39:29;7.03;;;2.50;;
65558;SDS011;52203;51.998;5.140;2023-05-19T11:41:55;7.78;;;2.45;;
65558;SDS011;52203;51.998;5.140;2023-05-19T11:44:21;5.97;;;2.72;;
65558;SDS011;52203;51.998;5.140;2023-05-19T11:46:54;7.05;;;2.70;;
65558;SDS011;52203;51.998;5.140;2023-05-19T11:49:19;4.90;;;2.58;;
65558;SDS011;52203;51.998;5.140;2023-05-19T11:51:45;5.82;;;2.50;;
65558;SDS011;52203;51.998;5.140;2023-05-19T11:54:11;6.63;;;3.05;;
65558;SDS011;52203;51.998;5.140;2023-05-19T11:56:40;7.05;;;2.63;;
65558;SDS011;52203;51.998;5.140;2023-05-19T11:59:07;4.00;;;2.30;;
65558;SDS011;52203;51.998;5.140;2023-05-19T12:01:33;5.75;;;2.72;;
65558;SDS011;52203;51.998;5.140;2023-05-19T12:03:59;6.15;;;2.25;;
65558;SDS011;52203;51.998;5.140;2023-05-19T12:06:25;5.93;;;2.78;;
65558;SDS011;52203;51.998;5.140;2023-05-19T12:08:53;8.90;;;2.97;;
65558;SDS011;52203;51.998;5.140;2023-05-19T12:11:19;6.13;;;2.95;;
65558;SDS011;52203;51.998;5.140;2023-05-19T12:13:45;4.53;;;2.40;;
65558;SDS011;52203;51.998;5.140;2023-05-19T12:16:11;6.95;;;2.58;;
65558;SDS011;52203;51.998;5.140;2023-05-19T12:18:37;7.18;;;2.80;;
65558;SDS011;52203;51.998;5.140;2023-05-19T12:21:04;5.63;;;2.30;;
65558;SDS011;52203;51.998;5.140;2023-05-19T12:23:31;4.88;;;2.40;;
65558;SDS011;52203;51.998;5.140;2023-05-19T12:25:58;7.25;;;2.78;;
65558;SDS011;52203;51.998;5.140;2023-05-19T12:28:24;7.65;;;2.80;;
65558;SDS011;52203;51.998;5.140;2023-05-19T12:30:50;7.35;;;2.55;;
65558;SDS011;52203;51.998;5.140;2023-05-19T12:33:17;4.55;;;1.90;;
65558;SDS011;52203;51.998;5.140;2023-05-19T12:35:43;4.82;;;2.22;;
65558;SDS011;52203;51.998;5.140;2023-05-19T12:38:10;6.90;;;2.40;;
65558;SDS011;52203;51.998;5.140;2023-05-19T12:40:35;8.45;;;2.67;;
65558;SDS011;52203;51.998;5.140;2023-05-19T12:43:03;6.10;;;2.58;;
65558;SDS011;52203;51.998;5.140;2023-05-19T12:45:32;4.97;;;2.42;;
65558;SDS011;52203;51.998;5.140;2023-05-19T12:48:01;3.80;;;2.10;;
65558;SDS011;52203;51.998;5.140;2023-05-19T12:50:30;6.53;;;2.53;;
65558;SDS011;52203;51.998;5.140;2023-05-19T12:52:57;6.15;;;2.20;;
65558;SDS011;52203;51.998;5.140;2023-05-19T12:55:23;5.95;;;2.58;;
65558;SDS011;52203;51.998;5.140;2023-05-19T12:57:50;4.90;;;2.30;;
65558;SDS011;52203;51.998;5.140;2023-05-19T13:00:21;5.40;;;2.17;;
65558;SDS011;52203;51.998;5.140;2023-05-19T13:05:22;6.40;;;2.22;;
65558;SDS011;52203;51.998;5.140;2023-05-19T13:10:29;9.38;;;2.40;;
65558;SDS011;52203;51.998;5.140;2023-05-19T13:12:55;4.85;;;2.42;;
65558;SDS011;52203;51.998;5.140;2023-05-19T13:15:23;4.70;;;2.38;;
65558;SDS011;52203;51.998;5.140;2023-05-19T13:17:51;4.70;;;2.00;;
65558;SDS011;52203;51.998;5.140;2023-05-19T13:20:18;5.63;;;2.35;;
65558;SDS011;52203;51.998;5.140;2023-05-19T13:22:45;4.85;;;2.38;;
65558;SDS011;52203;51.998;5.140;2023-05-19T13:25:14;7.28;;;2.22;;
65558;SDS011;52203;51.998;5.140;2023-05-19T13:27:40;7.60;;;2.35;;
65558;SDS011;52203;51.998;5.140;2023-05-19T13:30:06;6.25;;;2.72;;
65558;SDS011;52203;51.998;5.140;2023-05-19T13:32:32;6.90;;;2.67;;
65558;SDS011;52203;51.998;5.140;2023-05-19T13:34:58;9.60;;;2.72;;
65558;SDS011;52203;51.998;5.140;2023-05-19T13:37:24;6.80;;;2.45;;
65558;SDS011;52203;51.998;5.140;2023-05-19T13:39:50;5.05;;;2.65;;
65558;SDS011;52203;51.998;5.140;2023-05-19T13:42:16;6.47;;;2.50;;
65558;SDS011;52203;51.998;5.140;2023-05-19T13:44:42;6.43;;;2.63;;
65558;SDS011;52203;51.998;5.140;2023-05-19T13:47:09;5.57;;;2.88;;
65558;SDS011;52203;51.998;5.140;2023-05-19T13:49:34;8.93;;;3.30;;
65558;SDS011;52203;51.998;5.140;2023-05-19T13:52:00;9.02;;;3.55;;
65558;SDS011;52203;51.998;5.140;2023-05-19T13:54:26;7.57;;;3.53;;
65558;SDS011;52203;51.998;5.140;2023-05-19T13:56:51;5.78;;;3.17;;
65558;SDS011;52203;51.998;5.140;2023-05-19T13:59:17;9.25;;;3.20;;
65558;SDS011;52203;51.998;5.140;2023-05-19T14:01:42;8.75;;;3.35;;
65558;SDS011;52203;51.998;5.140;2023-05-19T14:04:09;7.57;;;3.30;;
65558;SDS011;52203;51.998;5.140;2023-05-19T14:06:34;5.97;;;2.80;;
65558;SDS011;52203;51.998;5.140;2023-05-19T14:09:02;5.82;;;2.70;;
65558;SDS011;52203;51.998;5.140;2023-05-19T14:11:28;5.63;;;2.83;;
65558;SDS011;52203;51.998;5.140;2023-05-19T14:13:53;5.80;;;2.53;;
65558;SDS011;52203;51.998;5.140;2023-05-19T14:16:19;7.55;;;2.95;;
65558;SDS011;52203;51.998;5.140;2023-05-19T14:18:46;5.22;;;2.60;;
65558;SDS011;52203;51.998;5.140;2023-05-19T14:21:11;7.72;;;2.72;;
65558;SDS011;52203;51.998;5.140;2023-05-19T14:23:37;6.80;;;3.10;;
65558;SDS011;52203;51.998;5.140;2023-05-19T14:26:02;6.07;;;2.58;;
65558;SDS011;52203;51.998;5.140;2023-05-19T14:28:28;7.10;;;3.08;;
65558;SDS011;52203;51.998;5.140;2023-05-19T14:30:53;5.20;;;2.80;;
65558;SDS011;52203;51.998;5.140;2023-05-19T14:33:19;5.88;;;2.50;;
65558;SDS011;52203;51.998;5.140;2023-05-19T14:35:45;5.20;;;2.78;;
65558;SDS011;52203;51.998;5.140;2023-05-19T14:38:11;5.95;;;2.78;;
65558;SDS011;52203;51.998;5.140;2023-05-19T14:40:37;6.85;;;3.28;;
65558;SDS011;52203;51.998;5.140;2023-05-19T14:43:05;8.75;;;2.65;;
65558;SDS011;52203;51.998;5.140;2023-05-19T14:45:33;5.53;;;2.70;;
65558;SDS011;52203;51.998;5.140;2023-05-19T14:48:06;5.75;;;2.78;;
65558;SDS011;52203;51.998;5.140;2023-05-19T14:50:32;6.15;;;2.75;;
65558;SDS011;52203;51.998;5.140;2023-05-19T14:52:57;6.70;;;3.20;;
65558;SDS011;52203;51.998;5.140;2023-05-19T14:55:23;5.63;;;2.65;;
65558;SDS011;52203;51.998;5.140;2023-05-19T14:57:49;7.15;;;2.92;;
65558;SDS011;52203;51.998;5.140;2023-05-19T15:00:15;6.10;;;3.15;;
65558;SDS011;52203;51.998;5.140;2023-05-19T15:02:44;5.50;;;2.58;;
65558;SDS011;52203;51.998;5.140;2023-05-19T15:05:09;5.72;;;2.50;;
65558;SDS011;52203;51.998;5.140;2023-05-19T15:07:35;8.32;;;2.60;;
65558;SDS011;52203;51.998;5.140;2023-05-19T15:10:01;5.38;;;2.65;;
65558;SDS011;52203;51.998;5.140;2023-05-19T15:12:28;8.40;;;2.67;;
65558;SDS011;52203;51.998;5.140;2023-05-19T15:14:54;4.90;;;2.30;;
65558;SDS011;52203;51.998;5.140;2023-05-19T15:17:20;5.60;;;2.75;;
65558;SDS011;52203;51.998;5.140;2023-05-19T15:19:46;6.07;;;2.83;;
65558;SDS011;52203;51.998;5.140;2023-05-19T15:22:12;3.83;;;2.25;;
65558;SDS011;52203;51.998;5.140;2023-05-19T15:24:37;4.18;;;2.28;;
65558;SDS011;52203;51.998;5.140;2023-05-19T15:27:05;6.47;;;2.90;;
65558;SDS011;52203;51.998;5.140;2023-05-19T15:29:31;6.55;;;2.75;;
65558;SDS011;52203;51.998;5.140;2023-05-19T15:31:56;5.22;;;2.85;;
65558;SDS011;52203;51.998;5.140;2023-05-19T15:34:22;5.80;;;2.28;;
65558;SDS011;52203;51.998;5.140;2023-05-19T15:36:48;5.47;;;2.33;;
65558;SDS011;52203;51.998;5.140;2023-05-19T15:39:13;7.43;;;2.38;;
65558;SDS011;52203;51.998;5.140;2023-05-19T15:41:39;5.68;;;2.80;;
65558;SDS011;52203;51.998;5.140;2023-05-19T15:44:04;4.85;;;2.63;;
65558;SDS011;52203;51.998;5.140;2023-05-19T15:46:31;5.70;;;2.22;;
65558;SDS011;52203;51.998;5.140;2023-05-19T15:48:57;5.28;;;2.05;;
65558;SDS011;52203;51.998;5.140;2023-05-19T15:51:22;5.60;;;2.50;;
65558;SDS011;52203;51.998;5.140;2023-05-19T15:53:48;6.00;;;2.50;;
65558;SDS011;52203;51.998;5.140;2023-05-19T15:56:14;5.72;;;2.47;;
65558;SDS011;52203;51.998;5.140;2023-05-19T15:58:39;5.43;;;2.25;;
65558;SDS011;52203;51.998;5.140;2023-05-19T16:01:05;5.90;;;2.45;;
65558;SDS011;52203;51.998;5.140;2023-05-19T16:03:31;6.80;;;2.83;;
65558;SDS011;52203;51.998;5.140;2023-05-19T16:05:57;5.28;;;2.30;;
65558;SDS011;52203;51.998;5.140;2023-05-19T16:08:23;5.53;;;2.47;;
65558;SDS011;52203;51.998;5.140;2023-05-19T16:10:49;5.45;;;2.70;;
65558;SDS011;52203;51.998;5.140;2023-05-19T16:13:14;5.82;;;2.38;;
65558;SDS011;52203;51.998;5.140;2023-05-19T16:15:40;6.15;;;2.38;;
65558;SDS011;52203;51.998;5.140;2023-05-19T16:18:05;6.93;;;2.53;;
65558;SDS011;52203;51.998;5.140;2023-05-19T16:20:31;6.95;;;2.60;;
65558;SDS011;52203;51.998;5.140;2023-05-19T16:22:56;4.60;;;2.60;;
65558;SDS011;52203;51.998;5.140;2023-05-19T16:25:22;6.90;;;2.33;;